Time;durP1;ratioP1;P1;durP2;ratioP2;P2;SDS_P1;SDS_P2;PMS_P1;PMS_P2;Temp;Humidity;BMP_temperature;BMP_pressure;BME280_temperature;BME280_humidity;BME280_pressure;Samples;Min_cycle;Max_cycle;Signal;HPM_P1;HPM_P2
2021/03/29 00:02:14;;;;;;;4.55;2.70;;;;;;;6.99;51.67;96719.22;4992267;28;20046;-63
2021/03/29 00:04:40;;;;;;;2.65;2.20;;;;;;;6.98;51.63;96720.28;4992911;28;20393;-66
2021/03/29 00:07:07;;;;;;;4.30;2.88;;;;;;;6.96;51.15;96717.06;4992660;28;20561;-65
2021/03/29 00:09:38;;;;;;;3.03;2.42;;;;;;;7.11;51.40;96738.44;4977234;28;20042;-65
2021/03/29 00:12:07;;;;;;;3.47;2.65;;;;;;;7.00;51.85;96726.91;4972546;28;20081;-65
2021/03/29 00:14:33;;;;;;;5.80;2.63;;;;;;;7.01;51.93;96730.34;4979697;28;20035;-64
2021/03/29 00:16:59;;;;;;;3.08;2.50;;;;;;;6.86;51.90;96711.63;4991984;28;20050;-65
2021/03/29 00:19:28;;;;;;;4.45;2.38;;;;;;;6.95;51.42;96721.56;4992702;28;20026;-64
2021/03/29 00:21:54;;;;;;;4.50;2.80;;;;;;;6.93;51.61;96722.84;4991840;28;20069;-65
2021/03/29 00:24:21;;;;;;;6.35;2.40;;;;;;;6.83;51.58;96712.13;4978801;28;20035;-64
2021/03/29 00:26:46;;;;;;;3.72;2.25;;;;;;;6.59;52.31;96680.53;4972337;28;20054;-65
2021/03/29 00:29:12;;;;;;;4.45;2.40;;;;;;;6.94;52.53;96738.47;4971207;28;20073;-65
2021/03/29 00:31:38;;;;;;;3.03;2.30;;;;;;;6.28;53.48;96671.31;4974203;28;20034;-63
2021/03/29 00:34:06;;;;;;;2.58;2.05;;;;;;;6.62;53.31;96713.63;4972385;28;20051;-65
2021/03/29 00:36:32;;;;;;;4.82;2.60;;;;;;;6.79;53.14;96738.22;4987372;28;20068;-67
2021/03/29 00:38:58;;;;;;;8.02;2.42;;;;;;;6.67;52.56;96703.13;4990847;28;20519;-64
2021/03/29 00:41:26;;;;;;;5.35;2.60;;;;;;;5.81;52.72;96581.72;4984371;28;20069;-65
2021/03/29 00:43:52;;;;;;;3.45;2.22;;;;;;;6.85;53.13;96736.47;4972007;28;20031;-65
2021/03/29 00:46:19;;;;;;;3.70;2.55;;;;;;;6.88;52.43;96742.09;4974101;28;20121;-64
2021/03/29 00:48:47;;;;;;;4.38;3.10;;;;;;;6.87;53.03;96742.34;4988652;28;20038;-64
2021/03/29 00:51:14;;;;;;;3.80;2.60;;;;;;;6.82;53.27;96750.97;4989899;28;20038;-65
2021/03/29 00:53:43;;;;;;;7.10;2.63;;;;;;;6.68;52.53;96737.25;4991543;28;20042;-64
2021/03/29 00:56:09;;;;;;;6.40;3.22;;;;;;;6.54;53.38;96720.09;4990099;28;20065;-64
2021/03/29 00:58:35;;;;;;;6.35;2.53;;;;;;;6.68;53.35;96753.13;4993066;28;20050;-66
2021/03/29 01:01:07;;;;;;;3.70;2.63;;;;;;;6.66;53.15;96749.94;4990799;28;20457;-65
2021/03/29 01:03:34;;;;;;;5.13;2.85;;;;;;;6.22;53.53;96686.28;4991453;28;20030;-64
2021/03/29 01:06:05;;;;;;;3.85;2.78;;;;;;;6.48;53.82;96737.72;4991315;28;20030;-65
2021/03/29 01:08:35;;;;;;;5.28;2.80;;;;;;;6.53;53.73;96746.78;4991109;28;20473;-66
2021/03/29 01:11:04;;;;;;;2.92;2.30;;;;;;;6.49;53.72;96749.91;4990038;28;20174;-65
2021/03/29 01:13:31;;;;;;;4.32;2.85;;;;;;;6.38;53.91;96732.25;4993070;28;20073;-64
2021/03/29 01:15:58;;;;;;;7.95;3.05;;;;;;;6.35;54.60;96737.25;4991114;28;20030;-65
2021/03/29 01:18:25;;;;;;;7.43;2.50;;;;;;;6.33;54.44;96736.66;4990604;28;20043;-65
2021/03/29 01:21:06;;;;;;;7.70;3.42;;;;;;;6.42;54.81;96754.53;4990940;28;20046;-63
2021/03/29 01:23:32;;;;;;;6.57;2.67;;;;;;;6.23;54.91;96730.16;4990981;28;20400;-65
2021/03/29 01:26:15;;;;;;;5.97;2.67;;;;;;;6.21;54.72;96732.25;4991237;28;20206;-65
2021/03/29 01:28:42;;;;;;;6.45;2.63;;;;;;;6.09;55.00;96710.38;4992705;28;20019;-64
2021/03/29 01:31:08;;;;;;;3.58;2.72;;;;;;;6.17;54.58;96719.72;4991508;28;20054;-64
2021/03/29 01:33:36;;;;;;;6.63;3.13;;;;;;;5.98;54.81;96684.78;4990935;28;20030;-67
2021/03/29 01:36:03;;;;;;;5.65;3.13;;;;;;;6.21;54.47;96718.22;4991015;28;20031;-65
2021/03/29 01:38:30;;;;;;;4.63;2.78;;;;;;;6.32;54.43;96750.91;4990567;28;20520;-65
2021/03/29 01:41:00;;;;;;;5.95;2.80;;;;;;;6.21;54.96;96731.44;4990977;28;20030;-66
2021/03/29 01:43:27;;;;;;;8.55;3.17;;;;;;;5.95;55.25;96698.47;4992314;28;20034;-66
2021/03/29 01:45:55;;;;;;;4.93;2.67;;;;;;;6.21;55.39;96742.81;4989332;28;20404;-65
2021/03/29 01:48:22;;;;;;;4.18;2.80;;;;;;;6.10;55.24;96750.78;4977028;28;20035;-65
2021/03/29 01:50:48;;;;;;;4.95;2.80;;;;;;;6.18;55.65;96753.03;4970890;28;20082;-65
2021/03/29 01:53:14;;;;;;;4.82;2.83;;;;;;;6.04;55.11;96739.31;4975334;28;20042;-65
2021/03/29 01:55:41;;;;;;;3.80;2.83;;;;;;;5.79;55.14;96700.00;4992283;28;20423;-65
2021/03/29 01:58:10;;;;;;;3.53;2.60;;;;;;;6.09;55.18;96749.16;4990476;28;20403;-63
2021/03/29 02:00:55;;;;;;;3.83;2.55;;;;;;;6.04;55.27;96749.91;4973404;28;20102;-64
2021/03/29 02:03:21;;;;;;;3.85;2.50;;;;;;;5.83;55.50;96724.06;4982772;28;20149;-66
2021/03/29 02:05:47;;;;;;;3.30;2.70;;;;;;;5.85;55.16;96736.03;4981478;28;20034;-66
2021/03/29 02:08:14;;;;;;;4.75;2.33;;;;;;;5.77;55.63;96728.44;4973714;28;20441;-64
2021/03/29 02:10:41;;;;;;;3.78;2.38;;;;;;;5.80;55.34;96737.75;4990261;28;20129;-64
2021/03/29 02:13:09;;;;;;;5.75;2.85;;;;;;;5.90;55.77;96753.81;4989768;28;20476;-65
2021/03/29 02:15:35;;;;;;;4.70;2.55;;;;;;;5.76;55.30;96729.50;4990037;28;20046;-65
2021/03/29 02:18:21;;;;;;;2.97;2.20;;;;;;;5.85;55.34;96759.00;4988238;28;20396;-65
2021/03/29 02:20:48;;;;;;;4.82;2.72;;;;;;;5.70;55.94;96730.44;4989763;28;20045;-63
2021/03/29 02:23:17;;;;;;;2.22;2.10;;;;;;;5.79;55.50;96760.72;4989616;28;20030;-65
2021/03/29 02:25:46;;;;;;;8.10;2.50;;;;;;;5.62;56.02;96738.72;4989628;28;20540;-64
2021/03/29 02:28:12;;;;;;;5.35;2.45;;;;;;;5.58;55.70;96729.63;4972117;28;20073;-64
2021/03/29 02:30:41;;;;;;;3.42;2.50;;;;;;;5.63;55.77;96735.84;4985740;28;20100;-65
2021/03/29 02:33:09;;;;;;;8.95;2.88;;;;;;;5.78;55.67;96753.00;4988292;28;20125;-64
2021/03/29 02:35:36;;;;;;;18.20;3.58;;;;;;;5.75;56.04;96754.31;4981856;28;20035;-63
2021/03/29 02:38:04;;;;;;;6.63;2.63;;;;;;;5.63;56.26;96746.41;4970006;28;20481;-65
2021/03/29 02:40:30;;;;;;;3.85;2.67;;;;;;;5.39;56.05;96707.91;4970983;28;20022;-64
2021/03/29 02:42:57;;;;;;;5.78;3.05;;;;;;;5.46;55.97;96716.47;4988091;28;20093;-66
2021/03/29 02:45:25;;;;;;;3.45;2.70;;;;;;;5.46;56.16;96727.03;4989432;28;20460;-69
2021/03/29 02:47:54;;;;;;;4.43;3.10;;;;;;;5.60;56.06;96748.72;4980020;28;20449;-65
2021/03/29 02:50:25;;;;;;;4.95;2.67;;;;;;;5.62;56.28;96763.25;4968665;28;20118;-64
2021/03/29 02:52:54;;;;;;;4.38;3.28;;;;;;;5.10;55.67;96691.19;4969980;28;20058;-65
2021/03/29 02:55:20;;;;;;;5.25;3.30;;;;;;;5.46;56.36;96741.03;4971782;28;20031;-68
2021/03/29 02:57:49;;;;;;;6.68;3.10;;;;;;;5.46;56.16;96751.59;4986425;28;20501;-64
2021/03/29 03:00:18;;;;;;;7.20;3.17;;;;;;;5.48;56.33;96761.94;4976635;28;20094;-64
2021/03/29 03:02:45;;;;;;;4.80;2.67;;;;;;;5.44;56.20;96763.41;4968359;28;20047;-65
2021/03/29 03:05:11;;;;;;;4.10;2.97;;;;;;;5.36;56.60;96755.84;4968328;28;20149;-63
2021/03/29 03:07:37;;;;;;;5.22;2.97;;;;;;;5.18;56.54;96733.03;4970111;28;20539;-66
2021/03/29 03:10:10;;;;;;;4.63;2.70;;;;;;;5.15;56.32;96728.22;4969846;28;20066;-65
2021/03/29 03:12:36;;;;;;;;;;;;;;;5.33;56.31;96764.25;4985451;28;20035;-63
2021/03/29 03:15:03;;;;;;;5.15;3.05;;;;;;;5.14;56.25;96748.53;4978459;28;19925;-65
2021/03/29 03:17:28;;;;;;;4.22;2.72;;;;;;;4.98;56.35;96722.84;4969508;28;20065;-65
2021/03/29 03:19:54;;;;;;;5.15;3.08;;;;;;;5.14;57.00;96759.06;4969918;28;20062;-64
2021/03/29 03:22:19;;;;;;;4.15;2.72;;;;;;;5.11;56.97;96762.16;4990850;28;20424;-64
2021/03/29 03:24:45;;;;;;;4.72;2.95;;;;;;;5.06;57.09;96759.41;4991589;28;20040;-64
2021/03/29 03:27:10;;;;;;;9.20;3.13;;;;;;;5.02;56.85;96752.19;4992897;28;20448;-65
2021/03/29 03:29:43;;;;;;;4.15;2.60;;;;;;;4.90;57.09;96741.63;4993004;28;20041;-64
2021/03/29 03:32:16;;;;;;;3.55;3.13;;;;;;;4.98;56.94;96754.47;4992825;28;20504;-65
2021/03/29 03:34:42;;;;;;;6.00;2.95;;;;;;;5.00;56.94;96756.88;4992893;28;20117;-65
2021/03/29 03:37:12;;;;;;;6.13;2.95;;;;;;;5.01;56.83;96758.47;4994554;28;20030;-65
2021/03/29 03:39:39;;;;;;;6.82;3.00;;;;;;;4.83;57.02;96733.03;4977099;28;20051;-64
2021/03/29 03:42:06;;;;;;;8.18;2.92;;;;;;;5.12;56.73;96782.25;4973196;28;20043;-65
2021/03/29 03:44:35;;;;;;;5.40;2.92;;;;;;;5.13;56.94;96768.03;4980330;28;20034;-65
2021/03/29 03:47:03;;;;;;;6.82;2.78;;;;;;;5.05;56.89;96757.00;4991288;28;21135;-64
2021/03/29 03:49:30;;;;;;;9.32;3.33;;;;;;;5.14;56.80;96768.81;4994579;28;20519;-65
2021/03/29 03:51:57;;;;;;;4.05;2.83;;;;;;;5.01;56.58;96754.00;4973024;28;20035;-65
2021/03/29 03:54:23;;;;;;;4.60;2.60;;;;;;;5.17;56.34;96774.44;4986995;28;20045;-64
2021/03/29 03:56:49;;;;;;;5.60;2.70;;;;;;;5.25;56.28;96780.41;4981993;28;20031;-65
2021/03/29 03:59:15;;;;;;;6.07;2.58;;;;;;;5.07;56.28;96753.13;4977669;28;20037;-65
2021/03/29 04:01:54;;;;;;;5.53;2.72;;;;;;;5.32;56.08;96787.16;4992459;28;20030;-64
2021/03/29 04:04:19;;;;;;;5.18;2.30;;;;;;;5.28;55.57;96775.47;4993331;28;20041;-65
2021/03/29 04:06:45;;;;;;;4.00;2.28;;;;;;;5.41;55.64;96784.97;4992319;28;20034;-64
2021/03/29 04:09:10;;;;;;;3.88;2.67;;;;;;;5.36;55.29;96767.19;4992506;28;20393;-65
2021/03/29 04:11:36;;;;;;;6.20;2.63;;;;;;;5.56;55.20;96793.22;4992328;28;20116;-65
2021/03/29 04:14:03;;;;;;;5.40;2.85;;;;;;;5.33;55.05;96745.78;4992417;28;20133;-65
2021/03/29 04:16:28;;;;;;;6.07;2.60;;;;;;;5.49;54.99;96771.44;4993079;28;20073;-65
2021/03/29 04:18:53;;;;;;;6.47;3.05;;;;;;;5.60;54.71;96789.09;4992013;28;20038;-65
2021/03/29 04:21:19;;;;;;;4.13;2.45;;;;;;;5.57;54.28;96794.03;4992005;28;20045;-64
2021/03/29 04:23:44;;;;;;;4.88;2.35;;;;;;;5.50;54.49;96796.00;4991983;28;20046;-65
2021/03/29 04:26:10;;;;;;;10.02;3.15;;;;;;;5.25;54.54;96765.38;4991989;28;20038;-65
2021/03/29 04:28:35;;;;;;;6.13;2.72;;;;;;;5.28;54.81;96783.41;4993792;28;20030;-65
2021/03/29 04:31:00;;;;;;;11.13;2.65;;;;;;;5.34;54.80;96792.22;4992005;28;20058;-65
2021/03/29 04:33:26;;;;;;;8.93;3.13;;;;;;;5.14;55.07;96769.63;4991701;28;20066;-65
2021/03/29 04:35:51;;;;;;;6.80;2.22;;;;;;;5.19;54.67;96797.94;4981747;28;20119;-64
2021/03/29 04:38:17;;;;;;;3.85;2.40;;;;;;;5.16;54.97;96793.13;4976760;28;20524;-66
2021/03/29 04:40:42;;;;;;;6.85;2.35;;;;;;;5.22;55.00;96806.22;4991681;28;20081;-63
2021/03/29 04:43:08;;;;;;;7.55;2.80;;;;;;;5.20;55.38;96810.09;4973940;28;20378;-66
2021/03/29 04:45:33;;;;;;;4.40;2.50;;;;;;;5.17;55.30;96808.75;4987363;28;20677;-64
2021/03/29 04:47:59;;;;;;;5.18;2.20;;;;;;;5.18;55.01;96826.16;4991480;28;20057;-65
2021/03/29 04:50:25;;;;;;;6.80;2.42;;;;;;;4.81;54.99;96753.53;4991386;28;20046;-65
2021/03/29 04:52:52;;;;;;;2.75;2.10;;;;;;;5.17;55.25;96821.94;4991290;28;20022;-64
2021/03/29 04:55:18;;;;;;;7.43;2.50;;;;;;;5.10;55.33;96812.50;4993261;28;20018;-65
2021/03/29 04:57:43;;;;;;;5.75;2.30;;;;;;;4.89;55.08;96790.13;4991189;28;20416;-65
2021/03/29 05:00:10;;;;;;;7.95;2.70;;;;;;;5.11;55.33;96819.38;4979271;28;20085;-65
2021/03/29 05:02:36;;;;;;;5.32;2.50;;;;;;;5.15;55.28;96833.72;4977647;28;20046;-65
2021/03/29 05:05:03;;;;;;;4.07;2.60;;;;;;;5.00;55.61;96805.16;4988279;28;20139;-64
2021/03/29 05:07:28;;;;;;;5.00;2.40;;;;;;;4.99;55.33;96808.81;4973558;28;20085;-63
2021/03/29 05:09:53;;;;;;;9.52;2.92;;;;;;;5.05;55.19;96818.47;4971853;28;20488;-65
2021/03/29 05:12:23;;;;;;;5.43;2.40;;;;;;;5.17;55.59;96832.47;4971331;28;20039;-67
2021/03/29 05:14:49;;;;;;;4.43;2.65;;;;;;;4.92;54.97;96801.03;4979097;28;20038;-64
2021/03/29 05:17:14;;;;;;;3.38;2.67;;;;;;;5.21;55.48;96833.63;4986011;28;20035;-67
2021/03/29 05:19:40;;;;;;;2.40;2.15;;;;;;;4.83;55.34;96762.03;4971809;28;20037;-66
2021/03/29 05:22:07;;;;;;;8.18;2.47;;;;;;;5.08;55.23;96802.19;4990200;28;20054;-67
2021/03/29 05:24:33;;;;;;;3.35;2.08;;;;;;;5.05;55.29;96788.66;4990640;28;20034;-63
2021/03/29 05:26:59;;;;;;;5.80;2.13;;;;;;;5.43;54.93;96846.28;4988689;28;20053;-64
2021/03/29 05:29:28;;;;;;;7.35;2.83;;;;;;;5.25;55.07;96806.78;4987410;28;20062;-64
2021/03/29 05:31:57;;;;;;;7.50;3.53;;;;;;;5.42;54.70;96824.31;4988872;28;20023;-66
2021/03/29 05:34:24;;;;;;;6.93;3.17;;;;;;;5.67;54.25;96845.22;4973023;28;20390;-64
2021/03/29 05:36:50;;;;;;;16.38;3.42;;;;;;;5.29;54.27;96768.38;4988030;28;20038;-64
2021/03/29 05:39:15;;;;;;;9.93;2.67;;;;;;;5.72;53.41;96824.19;4976110;28;20105;-65
2021/03/29 05:41:42;;;;;;;8.25;2.50;;;;;;;5.94;53.57;96852.69;4993860;28;20532;-65
2021/03/29 05:44:08;;;;;;;4.75;2.33;;;;;;;5.95;53.11;96835.81;4986944;28;20067;-64
2021/03/29 05:46:36;;;;;;;10.02;2.75;;;;;;;5.93;52.74;96822.03;4972081;28;20049;-64
2021/03/29 05:49:02;;;;;;;11.02;3.00;;;;;;;5.90;52.60;96793.41;4969594;28;20039;-65
2021/03/29 05:51:28;;;;;;;7.65;2.10;;;;;;;6.16;52.56;96824.63;4970739;28;20758;-65
2021/03/29 05:53:54;;;;;;;9.23;2.33;;;;;;;6.06;51.82;96794.56;4980814;28;20038;-63
2021/03/29 05:56:19;;;;;;;9.30;2.35;;;;;;;6.36;52.08;96833.97;4985032;28;20034;-64
2021/03/29 05:58:56;;;;;;;5.22;2.25;;;;;;;6.05;51.19;96772.63;4970440;28;20130;-65
2021/03/29 06:01:21;;;;;;;4.28;1.90;;;;;;;6.58;51.16;96842.06;4972298;28;20033;-63
2021/03/29 06:03:47;;;;;;;4.82;2.20;;;;;;;6.78;51.21;96853.81;4969376;28;20051;-64
2021/03/29 06:06:13;;;;;;;5.63;1.75;;;;;;;6.89;50.47;96862.72;4983196;28;20046;-64
2021/03/29 06:08:46;;;;;;;9.25;2.53;;;;;;;6.93;49.67;96855.91;4989802;28;20073;-63
2021/03/29 06:11:27;;;;;;;7.78;2.65;;;;;;;7.13;49.42;96862.59;4989805;28;20038;-63
2021/03/29 06:14:19;;;;;;;11.82;2.83;;;;;;;7.26;49.17;96862.25;4988201;28;20027;-65
2021/03/29 06:17:14;;;;;;;3.57;2.23;;;;;;;7.38;49.33;96864.84;4968842;28;20050;-64
2021/03/29 06:19:53;;;;;;;8.18;2.58;;;;;;;7.46;48.45;96861.78;4972013;28;20153;-64
2021/03/29 06:22:27;;;;;;;4.38;1.70;;;;;;;7.60;48.97;96862.28;4989803;28;20046;-63
2021/03/29 06:25:11;;;;;;;4.07;2.20;;;;;;;7.75;47.79;96865.94;4989541;28;20037;-64
2021/03/29 06:27:42;;;;;;;4.05;2.10;;;;;;;7.76;48.09;96846.34;4989427;28;20050;-65
2021/03/29 06:30:12;;;;;;;3.83;2.20;;;;;;;7.99;47.64;96868.41;4989520;28;20054;-63
2021/03/29 06:32:38;;;;;;;3.72;1.95;;;;;;;8.02;46.44;96867.88;4989252;28;20031;-63
2021/03/29 06:35:20;;;;;;;2.10;1.77;;;;;;;8.07;46.36;96844.91;4989839;28;20042;-63
2021/03/29 06:37:46;;;;;;;2.58;1.95;;;;;;;8.13;45.55;96829.88;4989351;28;20057;-64
2021/03/29 06:40:12;;;;;;;5.18;1.88;;;;;;;8.40;45.21;96853.84;4990108;28;20481;-63
2021/03/29 06:42:38;;;;;;;3.45;1.50;;;;;;;8.68;44.63;96873.22;4989265;28;20058;-63
2021/03/29 06:45:14;;;;;;;1.83;1.52;;;;;;;8.77;44.65;96864.56;4989343;28;20034;-64
2021/03/29 06:47:40;;;;;;;4.40;1.90;;;;;;;8.91;44.14;96864.19;4989127;28;20489;-63
2021/03/29 06:50:06;;;;;;;6.85;1.70;;;;;;;9.10;43.65;96876.03;4989362;28;20050;-64
2021/03/29 06:52:34;;;;;;;4.70;1.80;;;;;;;9.27;43.61;96879.38;4991207;28;20503;-64
2021/03/29 06:55:23;;;;;;;3.80;1.67;;;;;;;9.43;43.03;96884.81;4987920;28;20124;-63
2021/03/29 06:58:03;;;;;;;4.45;1.70;;;;;;;9.37;42.94;96852.91;4988869;28;20035;-62
2021/03/29 07:00:29;;;;;;;7.40;1.83;;;;;;;9.55;41.85;96870.28;4989288;28;20042;-64
2021/03/29 07:02:59;;;;;;;2.53;1.75;;;;;;;9.79;42.10;96897.31;4988999;28;20038;-63
2021/03/29 07:05:25;;;;;;;2.20;1.50;;;;;;;9.92;41.90;96888.09;4989209;28;20042;-64
2021/03/29 07:07:52;;;;;;;3.55;1.67;;;;;;;9.98;41.56;96881.75;4989006;28;20030;-64
2021/03/29 07:10:18;;;;;;;4.18;1.60;;;;;;;10.13;41.55;96892.47;4991187;28;20034;-64
2021/03/29 07:12:45;;;;;;;3.47;1.85;;;;;;;10.15;41.70;96885.03;4989415;28;20041;-65
2021/03/29 07:15:12;;;;;;;2.67;1.58;;;;;;;10.13;41.21;96875.69;4989010;28;20039;-65
2021/03/29 07:17:41;;;;;;;2.30;1.70;;;;;;;10.44;40.84;96902.47;4988949;28;20049;-65
2021/03/29 07:20:24;;;;;;;2.15;1.33;;;;;;;10.47;41.10;96883.34;4987578;28;20027;-67
2021/03/29 07:22:50;;;;;;;4.93;2.15;;;;;;;10.43;40.95;96868.97;4988808;28;20524;-66
2021/03/29 07:25:16;;;;;;;2.78;1.60;;;;;;;10.64;40.02;96891.91;4990861;28;20098;-70
2021/03/29 07:27:51;;;;;;;2.33;1.42;;;;;;;10.84;39.55;96905.28;4988821;28;20042;-66
2021/03/29 07:30:18;;;;;;;3.03;1.55;;;;;;;11.06;39.84;96910.41;4988972;28;20043;-68
2021/03/29 07:32:55;;;;;;;2.65;1.42;;;;;;;11.13;39.75;96900.31;4988752;28;20054;-67
2021/03/29 07:35:21;;;;;;;3.50;1.60;;;;;;;11.29;39.49;96909.13;4987358;28;20043;-66
2021/03/29 07:37:55;;;;;;;3.42;1.80;;;;;;;11.34;40.00;96897.66;4988725;28;20045;-68
2021/03/29 07:40:22;;;;;;;10.80;2.22;;;;;;;11.44;39.29;96903.00;4990651;28;20033;-66
2021/03/29 07:42:50;;;;;;;2.58;1.60;;;;;;;11.58;38.91;96912.06;4988672;28;20038;-66
2021/03/29 07:45:28;;;;;;;3.65;1.70;;;;;;;11.59;38.89;96899.53;4988744;28;20034;-66
2021/03/29 07:47:57;;;;;;;3.13;1.60;;;;;;;11.82;38.17;96914.22;4988641;28;20065;-66
2021/03/29 07:50:25;;;;;;;2.95;1.40;;;;;;;11.96;38.72;96910.72;4988489;28;20354;-67
2021/03/29 07:52:59;;;;;;;3.70;1.58;;;;;;;12.09;38.56;96909.41;4988663;28;20030;-69
2021/03/29 07:55:56;;;;;;;2.47;1.42;;;;;;;12.22;38.15;96916.00;4990609;28;20109;-67
2021/03/29 07:58:23;;;;;;;4.03;2.00;;;;;;;12.35;36.90;96912.00;4987525;28;20050;-68
2021/03/29 08:01:00;;;;;;;7.10;2.28;;;;;;;12.39;37.12;96903.19;4988665;28;20039;-66
2021/03/29 08:03:25;;;;;;;2.08;1.50;;;;;;;12.57;36.85;96901.78;4988012;28;20046;-67
2021/03/29 08:05:52;;;;;;;3.78;2.05;;;;;;;12.35;36.57;96910.13;4979230;28;20039;-68
2021/03/29 08:08:37;;;;;;;4.18;1.75;;;;;;;12.61;36.37;96910.03;4967736;28;20404;-61
2021/03/29 08:11:04;;;;;;;3.80;1.90;;;;;;;12.43;36.16;96911.41;4971646;28;20047;-65
2021/03/29 08:13:53;;;;;;;3.30;1.73;;;;;;;12.65;36.09;96897.75;4973121;28;20081;-67
2021/03/29 08:16:22;;;;;;;2.97;1.77;;;;;;;12.69;36.55;96901.44;4992772;28;20038;-66
2021/03/29 08:19:20;;;;;;;6.32;2.03;;;;;;;12.75;36.09;96897.69;4991926;28;20050;-64
2021/03/29 08:22:01;;;;;;;3.95;2.78;;;;;;;12.23;36.82;96905.09;4991320;28;20042;-64
2021/03/29 08:24:40;;;;;;;5.22;1.85;;;;;;;11.94;37.19;96906.75;4991885;28;20043;-64
2021/03/29 08:27:14;;;;;;;3.75;2.10;;;;;;;12.20;37.53;96904.81;4991882;28;20026;-65
2021/03/29 08:29:42;;;;;;;2.70;1.90;;;;;;;12.10;36.80;96873.63;4991922;28;20068;-64
2021/03/29 08:32:14;;;;;;;5.35;1.95;;;;;;;12.37;37.36;96904.50;4991720;28;20030;-67
2021/03/29 08:34:58;;;;;;;4.22;1.85;;;;;;;12.91;36.50;96896.53;4993650;28;20450;-63
2021/03/29 08:37:30;;;;;;;4.97;1.95;;;;;;;12.33;37.12;96906.13;4971295;28;20041;-66
2021/03/29 08:40:10;;;;;;;6.07;1.70;;;;;;;12.84;36.62;96890.69;4988676;28;20050;-61
2021/03/29 08:42:36;;;;;;;4.03;1.92;;;;;;;12.88;36.09;96893.63;4976433;28;20141;-64
2021/03/29 08:45:05;;;;;;;3.28;1.75;;;;;;;12.64;36.75;96896.13;4983103;28;20030;-66
2021/03/29 08:47:31;;;;;;;5.03;1.98;;;;;;;12.95;35.85;96908.28;4991265;28;20489;-64
2021/03/29 08:49:59;;;;;;;4.10;1.88;;;;;;;12.88;36.26;96902.44;4991405;28;20029;-61
2021/03/29 08:52:26;;;;;;;8.15;1.83;;;;;;;13.30;35.79;96905.69;4993166;28;20076;-61
2021/03/29 08:54:56;;;;;;;6.43;1.83;;;;;;;13.40;34.61;96908.28;4991422;28;20108;-63
2021/03/29 08:57:27;;;;;;;4.05;1.83;;;;;;;13.37;33.93;96872.22;5006380;28;20080;-66
2021/03/29 08:59:55;;;;;;;3.53;1.48;;;;;;;13.91;34.07;96906.00;4991328;28;20037;-66
2021/03/29 09:02:21;;;;;;;3.45;1.98;;;;;;;13.27;34.57;96913.19;4991011;28;20127;-66
2021/03/29 09:04:58;;;;;;;6.28;2.13;;;;;;;13.64;34.30;96903.03;4991282;28;20034;-64
2021/03/29 09:07:29;;;;;;;2.50;2.17;;;;;;;14.02;33.69;96910.19;4993037;28;20054;-67
2021/03/29 09:09:54;;;;;;;3.40;1.73;;;;;;;13.99;33.90;96865.25;4973308;28;20694;-66
2021/03/29 09:12:23;;;;;;;9.25;1.90;;;;;;;14.35;33.89;96890.84;4984984;28;20158;-62
2021/03/29 09:14:48;;;;;;;6.15;1.90;;;;;;;14.28;33.73;96886.66;4989856;28;20399;-66
2021/03/29 09:17:25;;;;;;;3.90;1.77;;;;;;;14.64;33.55;96901.50;4986613;28;20121;-65
2021/03/29 09:19:50;;;;;;;3.53;1.52;;;;;;;14.46;33.33;96866.34;4972702;28;20039;-65
2021/03/29 09:22:33;;;;;;;2.75;1.77;;;;;;;14.62;32.93;96863.50;4991211;28;20069;-64
2021/03/29 09:25:01;;;;;;;3.88;1.52;;;;;;;14.75;32.69;96900.31;4991097;28;20480;-65
2021/03/29 09:27:36;;;;;;;5.93;1.90;;;;;;;14.55;33.09;96912.06;4990479;28;20038;-64
2021/03/29 09:30:06;;;;;;;2.97;1.85;;;;;;;14.24;32.00;96796.50;4992105;28;20516;-67
2021/03/29 09:32:32;;;;;;;5.47;2.40;;;;;;;15.14;32.11;96894.69;4984251;28;20561;-74
2021/03/29 09:34:58;;;;;;;4.20;2.17;;;;;;;15.27;31.62;96882.44;4971781;28;20034;-66
2021/03/29 09:37:27;;;;;;;7.88;2.60;;;;;;;15.23;31.27;96865.34;4975053;28;20054;-67
2021/03/29 09:40:07;;;;;;;4.70;1.65;;;;;;;15.28;31.31;96918.88;4971348;28;20045;-63
2021/03/29 09:42:47;;;;;;;6.63;2.40;;;;;;;15.08;31.34;96911.94;4972453;28;20098;-66
2021/03/29 09:45:25;;;;;;;3.17;1.75;;;;;;;15.36;31.47;96904.84;4971124;28;20070;-66
2021/03/29 09:48:09;;;;;;;4.65;2.15;;;;;;;14.85;31.67;96920.81;4978847;28;20056;-65
2021/03/29 09:50:44;;;;;;;4.00;2.00;;;;;;;15.22;32.15;96920.84;4983382;28;20035;-65
2021/03/29 09:53:12;;;;;;;2.80;2.25;;;;;;;15.73;30.45;96916.63;4974695;28;20052;-66
2021/03/29 09:55:41;;;;;;;3.88;2.53;;;;;;;15.14;31.97;96924.16;4992345;28;20366;-67
2021/03/29 09:58:38;;;;;;;3.47;1.95;;;;;;;15.14;30.77;96896.56;4990019;28;20031;-66
2021/03/29 10:01:15;;;;;;;2.83;2.13;;;;;;;15.50;30.78;96894.16;4971184;28;20046;-66
2021/03/29 10:03:50;;;;;;;10.45;2.25;;;;;;;15.69;30.19;96884.22;4986982;28;20043;-67
2021/03/29 10:06:19;;;;;;;3.85;2.03;;;;;;;15.87;29.65;96882.59;4989831;28;20030;-67
2021/03/29 10:09:04;;;;;;;3.10;2.08;;;;;;;15.73;30.05;96885.22;4989771;28;20034;-66
2021/03/29 10:11:47;;;;;;;5.40;1.92;;;;;;;16.28;29.56;96909.50;4988608;28;20554;-66
2021/03/29 10:14:15;;;;;;;3.28;1.90;;;;;;;16.40;29.29;96903.63;4985303;28;20050;-63
2021/03/29 10:16:48;;;;;;;4.72;1.77;;;;;;;15.43;30.14;96881.13;4969127;28;20074;-63
2021/03/29 10:19:21;;;;;;;3.67;1.90;;;;;;;15.42;29.95;96903.66;4972268;28;20220;-63
2021/03/29 10:22:03;;;;;;;3.85;1.73;;;;;;;15.30;28.72;96914.03;4985378;28;20030;-67
2021/03/29 10:24:28;;;;;;;3.45;1.65;;;;;;;14.89;29.78;96854.84;4987515;28;20154;-64
2021/03/29 10:27:04;;;;;;;8.52;2.22;;;;;;;15.16;29.18;96887.16;4979637;28;20114;-63
2021/03/29 10:29:36;;;;;;;4.18;1.98;;;;;;;15.33;29.54;96911.56;4976725;28;20030;-64
2021/03/29 10:32:04;;;;;;;3.95;1.80;;;;;;;15.52;29.53;96898.16;4985312;28;20046;-63
2021/03/29 10:34:29;;;;;;;2.83;2.20;;;;;;;15.55;29.79;96875.28;4971485;28;20105;-64
2021/03/29 10:36:55;;;;;;;5.13;2.10;;;;;;;15.78;29.47;96900.44;4968302;28;20121;-62
2021/03/29 10:39:20;;;;;;;6.07;1.75;;;;;;;15.57;29.61;96852.47;4969699;28;20073;-64
2021/03/29 10:41:46;;;;;;;4.03;1.90;;;;;;;15.76;29.72;96881.16;4969931;28;20042;-66
2021/03/29 10:44:11;;;;;;;2.25;2.05;;;;;;;15.73;29.75;96845.00;4970096;28;20039;-64
2021/03/29 10:46:36;;;;;;;3.53;1.75;;;;;;;15.80;28.82;96900.94;4971963;28;20027;-64
2021/03/29 10:49:02;;;;;;;2.00;1.80;;;;;;;15.47;29.65;96887.50;4989024;28;20486;-64
2021/03/29 10:51:27;;;;;;;3.78;1.92;;;;;;;15.91;29.01;96870.16;4974557;28;20153;-64
2021/03/29 10:53:52;;;;;;;4.25;2.03;;;;;;;16.22;29.11;96891.06;4979350;28;20536;-64
2021/03/29 10:56:18;;;;;;;4.90;1.80;;;;;;;16.20;27.86;96882.53;4984249;28;20043;-65
2021/03/29 10:58:43;;;;;;;3.97;2.25;;;;;;;15.77;28.97;96878.19;4969489;28;20027;-63
2021/03/29 11:01:08;;;;;;;3.25;1.98;;;;;;;16.02;29.27;96870.75;4971437;28;20152;-63
2021/03/29 11:03:34;;;;;;;5.22;1.80;;;;;;;16.19;29.53;96879.06;4969802;28;20059;-65
2021/03/29 11:05:59;;;;;;;2.60;1.90;;;;;;;16.53;28.75;96873.31;4981355;28;20031;-65
2021/03/29 11:08:25;;;;;;;3.72;1.92;;;;;;;16.77;29.00;96853.50;4984206;28;20062;-64
2021/03/29 11:10:50;;;;;;;3.72;1.77;;;;;;;16.56;29.56;96871.91;4971924;28;20058;-64
2021/03/29 11:13:16;;;;;;;5.47;1.90;;;;;;;16.46;26.48;96872.09;4991807;28;20486;-63
2021/03/29 11:15:41;;;;;;;2.95;1.30;;;;;;;16.33;25.55;96871.00;4972801;28;20031;-64
2021/03/29 11:18:08;;;;;;;2.83;1.80;;;;;;;16.69;25.88;96860.34;4980653;28;20129;-65
2021/03/29 11:20:33;;;;;;;2.28;1.25;;;;;;;16.38;24.38;96877.09;4982777;28;20125;-64
2021/03/29 11:22:59;;;;;;;2.78;1.52;;;;;;;16.31;24.37;96865.13;4970395;28;20106;-63
2021/03/29 11:25:24;;;;;;;4.35;1.60;;;;;;;16.40;24.36;96838.38;4972057;28;20031;-65
2021/03/29 11:27:49;;;;;;;4.18;1.77;;;;;;;16.76;24.55;96859.97;4987492;28;20381;-64
2021/03/29 11:30:15;;;;;;;2.83;1.60;;;;;;;16.79;24.88;96841.34;4977421;28;20043;-64
2021/03/29 11:32:43;;;;;;;2.55;1.65;;;;;;;16.61;25.03;96858.34;4970336;28;20031;-64
2021/03/29 11:35:09;;;;;;;2.22;1.90;;;;;;;16.86;24.45;96855.16;4972803;28;20031;-65
2021/03/29 11:37:35;;;;;;;2.70;1.48;;;;;;;17.07;24.34;96857.41;4991592;28;20031;-64
2021/03/29 11:40:02;;;;;;;4.38;1.88;;;;;;;16.96;24.04;96851.47;4971404;28;20035;-64
2021/03/29 11:42:27;;;;;;;3.22;1.52;;;;;;;17.05;23.81;96833.53;4984543;28;20039;-65
2021/03/29 11:44:52;;;;;;;3.10;2.10;;;;;;;17.18;24.17;96855.28;4981079;28;20041;-64
2021/03/29 11:47:18;;;;;;;3.33;2.15;;;;;;;16.85;23.88;96831.28;4972838;28;20593;-64
2021/03/29 11:49:43;;;;;;;2.97;1.83;;;;;;;17.37;24.08;96843.25;4973886;28;20035;-64